x

Gulf Of Maine - 78 Nm East Of Portsmouth, Nh (44005) Wave Buoy

2:50 - Sun 1st May 2016 All times are EDT. -4 hours from GMT.

  • Sig Wave height 4.9ft
  • Peak Period 10s
  • Average Period 7s
  • Wind
    9mph
  • Sea Temp 46°f
  • Ar Temp 45°f
  • Sea Pressure 1024.9mb
  • Gulf Of Maine - 78 Nm East Of Portsmouth, Nh
  • Gulf Of Maine - 78 Nm East Of Portsmouth, Nh

More Historic Weather Station data

Upgrade to MSW Pro to gain access to the past 30 days of data for over 8000 Wavebouys and Weather Stations around the globe.

Join Pro

Comparision Forecast

View Surf forecast
   
Dom 05/01 2:50 5ft 10s 7s 9
mph
1024.9mb 46f 45f
1:50 5ft 10s 7s 9 11 mph 1025.2mb 46f 46f
12:50 5ft 8s 7s 9 11 mph 1025mb 45f 46f
11:50 4ft 8s 6s 11
mph
1024.6mb 45f 46f
10:50 3ft 9s 6s 13 16 mph 1024.7mb 45f 45f
9:50 3ft 7s 7s 11 13 mph 1025mb 45f 45f
8:50 2.5ft 8s 6s 9 11 mph 1024.7mb 45f 45f
7:50 2.5ft 8s 6s 9 11 mph 1024.6mb 45f 45f
6:50 2.5ft 8s 6s 4 7 mph 1024.6mb 45f 45f
5:50 2.5ft 8s 6s 7
mph
1023.8mb 45f 45f
4:50 2.5ft 8s 5s 4 7 mph 1023.9mb 45f 45f
3:50 2ft 8s 5s 4 7 mph 1023.7mb 45f 45f
2:50 2.5ft 7s 5s 7
mph
1023.8mb 45f 45f
1:50 2.5ft 7s 5s 7 9 mph 1024.3mb 45f 45f
12:50 2ft 9s 5s 7
mph
1024.5mb 45f 45f
Sáb 04/30 11:50 2ft 8s 5s 9 11 mph 1024.7mb 45f 45f
10:50 2ft 8s 5s 9 11 mph 1024.5mb 46f 45f
9:50 1.6ft 8s 5s 9 13 mph 1024.5mb 46f 45f
8:50 1.6ft 8s 5s 9 11 mph 1024mb 46f 45f
7:50 1.6ft 9s 6s 13
mph
1023.3mb 47f 46f
6:50 1.6ft 8s 6s 9 11 mph 1023.6mb 47f 46f
5:50 1.6ft 7s 5s 9 11 mph 1023.2mb 47f 46f
4:50 1.6ft 7s 6s 7
mph
1023.2mb 49f 45f
3:50 2ft 7s 6s 4
mph
1023.3mb 49f 45f
2:50 2ft 7s 6s 4 7 mph 1023.1mb 49f 45f
1:50 2ft 8s 6s 4 7 mph 1023.3mb 48f 45f
12:50 2ft 8s 6s 2 4 mph 1023.8mb 48f 45f
11:50 2ft 8s 6s  -  2 mph 1024.3mb 48f 45f
10:50 2ft 9s 6s 2 4 mph 1025.1mb 48f 44f
9:50 2ft 9s 6s  -  mph 1024.1mb 46f 45f
8:50 1.6ft 8s 5s  -  2 mph 1023.9mb 45f 45f
7:50 2ft 8s 5s  -  2 mph 1023.5mb 44f 44f
6:50 1.6ft 9s 5s 2 4 mph 1022.3mb 44f 44f
5:50 2ft 9s 5s 4
mph
1021.8mb 44f 43f
4:50 2ft 9s 5s 4 7 mph 1022mb 44f 43f
3:50 2ft 6s 5s 7
mph
1022mb 44f 43f
2:50 2ft 10s 5s 7
mph
1021.9mb 44f 43f
1:50 2.5ft 6s 5s 7 9 mph 1022.1mb 44f 44f
12:50 2.5ft 8s 5s 9 11 mph 1021.8mb 44f 43f
Sex 04/29 11:50 2.5ft 8s 5s 9 11 mph 1021.4mb 44f 43f
10:50 2ft 8s 5s 11 13 mph 1020.8mb 44f 43f
9:50 2.5ft 8s 5s 11 13 mph 1021.2mb 44f 43f
8:50 2ft 8s 5s 9 11 mph 1021.1mb 44f 43f
7:50 2ft 9s 5s 9
mph
1020.9mb 45f 43f
6:50 2.5ft 9s 5s 9 11 mph 1021.2mb 45f 43f
5:50 2ft 8s 5s 9 11 mph 1020.8mb 45f 43f
4:50 2ft 9s 5s 9 11 mph 1020.6mb 45f 43f
3:50 2.5ft 8s 5s 9 11 mph 1020.7mb 45f 43f
2:50 2.5ft 5s 5s 9
mph
1021.3mb 45f 43f
1:50 3ft 5s 4s 9
mph
1021.9mb 44f 43f
12:50 3ft 5s 5s 11 13 mph 1022.4mb 44f 42f
11:50 3.5ft 8s 5s 11 13 mph 1023.2mb 44f 42f
10:50 3.5ft 5s 4s 13 16 mph 1023.3mb 44f 42f
9:50 4ft 5s 5s 13 18 mph 1023mb 44f 42f
8:50 3.5ft 5s 5s 16 18 mph 1022.8mb 44f 41f
7:50 3.5ft 4s 4s 18 20 mph 1022.4mb 44f 41f
6:50 2.5ft 9s 4s 18 20 mph 1021.8mb 43f 41f
5:50 2.5ft 9s 4s 16 20 mph 1021.2mb 44f 42f
4:50 2ft 9s 5s 9 16 mph 1020.8mb 44f 42f
3:50 2ft 9s 5s 7 9 mph 1020.6mb 44f 42f
2:50 2.5ft 9s 5s 7
mph
1020.6mb 44f 42f
1:50 2.5ft 8s 5s 4 7 mph 1020.7mb 44f 43f
12:50 2.5ft 7s 5s 2 4 mph 1020.8mb 44f 43f
Qui 04/28 11:50 3ft 8s 5s 4 7 mph 1020.6mb 44f 43f
10:50 2.5ft 7s 5s 9
mph
1020.6mb 44f 43f
9:50 2.5ft 8s 5s 11
mph
1020.3mb 44f 43f
8:50 2.5ft 8s 5s 13
mph
1019.8mb 44f 43f
7:50 2.5ft 8s 5s 13 16 mph 1018.8mb 44f 42f
6:50 2.5ft 9s 5s 13 16 mph 1018.2mb 44f 42f
5:50 2.5ft 10s 5s 13 18 mph 1017.4mb 45f 42f
4:50 2ft 8s 5s 13 16 mph 1016.9mb 45f 41f
3:50 2.5ft 10s 6s 11 13 mph 1017.3mb 45f 41f
2:50 2.5ft 10s 5s 9 11 mph 1017.7mb 44f 40f
1:50 3ft 9s 5s 9 11 mph 1017.8mb 44f 40f
12:50 3ft 8s 5s 9 11 mph 1018mb 44f 40f
11:50 3.5ft 4s 5s 9 13 mph 1018mb 43f 39f
10:50 3.5ft 9s 5s 11 13 mph 1017.9mb 43f 39f
9:50 3.5ft 9s 5s 13 18 mph 1017.5mb 43f 39f
8:50 3.5ft 9s 5s 18 20 mph 1017mb 43f 39f
7:50 3.5ft 8s 5s 11 16 mph 1016.4mb 43f 39f
6:50 4ft 9s 5s 11 13 mph 1015.7mb 43f 39f
5:50 4.5ft 10s 5s 16 20 mph 1014.6mb 43f 40f
4:50 4ft 10s 5s 16 18 mph 1013.2mb 43f 41f
3:50 4.5ft 10s 5s 16 20 mph 1012.4mb 43f 42f
2:50 5ft 5s 5s 18 25 mph 1011.7mb 43f 42f
1:50 4.5ft 10s 4s 22 27 mph 1011.3mb 44f 43f
12:50 4ft 10s 4s 22 25 mph 1010.9mb 44f 44f
Qua 04/27 11:50 3.5ft 11s 6s 16 22 mph 1010.6mb 44f 44f
10:50 4ft 11s 6s 9 11 mph 1009.5mb 44f 45f
9:50 4.5ft 8s 6s 13 16 mph 1009.5mb 44f 44f
8:50 4ft 8s 6s 11 13 mph 1009.4mb 44f 44f